sensor_id;sensor_type;location;lat;lon;timestamp;P1;durP1;ratioP1;P2;durP2;ratioP2
6902;SDS011;20232;49.408;8.702;2023-04-28T04:00:39;8.17;;;6.13;;
6902;SDS011;20232;49.408;8.702;2023-04-28T04:03:04;7.50;;;6.07;;
6902;SDS011;20232;49.408;8.702;2023-04-28T04:05:30;8.27;;;5.93;;
6902;SDS011;20232;49.408;8.702;2023-04-28T04:07:56;7.33;;;6.10;;
6902;SDS011;20232;49.408;8.702;2023-04-28T04:10:22;7.23;;;5.90;;
6902;SDS011;20232;49.408;8.702;2023-04-28T04:12:47;6.70;;;6.00;;
6902;SDS011;20232;49.408;8.702;2023-04-28T04:15:13;8.10;;;6.30;;
6902;SDS011;20232;49.408;8.702;2023-04-28T04:17:38;7.30;;;6.37;;
6902;SDS011;20232;49.408;8.702;2023-04-28T04:20:04;8.77;;;6.47;;
6902;SDS011;20232;49.408;8.702;2023-04-28T04:22:30;8.67;;;6.90;;
6902;SDS011;20232;49.408;8.702;2023-04-28T04:24:56;7.07;;;6.37;;
6902;SDS011;20232;49.408;8.702;2023-04-28T04:27:21;9.10;;;6.43;;
6902;SDS011;20232;49.408;8.702;2023-04-28T04:29:47;7.57;;;6.30;;
6902;SDS011;20232;49.408;8.702;2023-04-28T04:32:13;7.00;;;6.30;;
6902;SDS011;20232;49.408;8.702;2023-04-28T04:34:38;8.93;;;6.83;;
6902;SDS011;20232;49.408;8.702;2023-04-28T04:37:04;9.37;;;7.07;;
6902;SDS011;20232;49.408;8.702;2023-04-28T04:39:30;7.33;;;6.60;;
6902;SDS011;20232;49.408;8.702;2023-04-28T04:41:55;8.33;;;6.67;;
6902;SDS011;20232;49.408;8.702;2023-04-28T04:44:21;8.63;;;7.37;;
6902;SDS011;20232;49.408;8.702;2023-04-28T04:46:47;7.77;;;7.07;;
6902;SDS011;20232;49.408;8.702;2023-04-28T04:49:12;9.33;;;7.60;;
6902;SDS011;20232;49.408;8.702;2023-04-28T04:51:38;9.17;;;7.30;;
6902;SDS011;20232;49.408;8.702;2023-04-28T04:54:03;9.63;;;7.33;;
6902;SDS011;20232;49.408;8.702;2023-04-28T04:56:29;8.83;;;8.00;;
6902;SDS011;20232;49.408;8.702;2023-04-28T04:58:55;9.10;;;8.20;;
6902;SDS011;20232;49.408;8.702;2023-04-28T05:01:21;8.77;;;7.90;;
6902;SDS011;20232;49.408;8.702;2023-04-28T05:03:46;10.50;;;8.20;;
6902;SDS011;20232;49.408;8.702;2023-04-28T05:06:12;11.60;;;8.80;;
6902;SDS011;20232;49.408;8.702;2023-04-28T05:08:38;11.10;;;9.20;;
6902;SDS011;20232;49.408;8.702;2023-04-28T05:11:03;9.93;;;8.93;;
6902;SDS011;20232;49.408;8.702;2023-04-28T05:13:29;11.03;;;9.50;;
6902;SDS011;20232;49.408;8.702;2023-04-28T05:15:54;10.80;;;9.70;;
6902;SDS011;20232;49.408;8.702;2023-04-28T05:18:20;12.03;;;10.70;;
6902;SDS011;20232;49.408;8.702;2023-04-28T05:20:46;12.90;;;10.47;;
6902;SDS011;20232;49.408;8.702;2023-04-28T05:23:12;12.00;;;10.70;;
6902;SDS011;20232;49.408;8.702;2023-04-28T05:25:38;14.27;;;10.80;;
6902;SDS011;20232;49.408;8.702;2023-04-28T05:28:03;13.47;;;10.73;;
6902;SDS011;20232;49.408;8.702;2023-04-28T05:30:31;14.37;;;11.27;;
6902;SDS011;20232;49.408;8.702;2023-04-28T05:32:57;15.37;;;11.50;;
6902;SDS011;20232;49.408;8.702;2023-04-28T05:35:23;13.40;;;11.30;;
6902;SDS011;20232;49.408;8.702;2023-04-28T05:37:49;13.83;;;11.63;;
6902;SDS011;20232;49.408;8.702;2023-04-28T05:40:15;13.70;;;12.33;;
6902;SDS011;20232;49.408;8.702;2023-04-28T05:42:40;14.90;;;12.27;;
6902;SDS011;20232;49.408;8.702;2023-04-28T05:45:06;14.50;;;12.70;;
6902;SDS011;20232;49.408;8.702;2023-04-28T05:47:32;14.50;;;12.43;;
6902;SDS011;20232;49.408;8.702;2023-04-28T05:49:58;13.80;;;12.37;;
6902;SDS011;20232;49.408;8.702;2023-04-28T05:52:23;15.67;;;13.40;;
6902;SDS011;20232;49.408;8.702;2023-04-28T05:54:49;14.43;;;13.00;;
6902;SDS011;20232;49.408;8.702;2023-04-28T05:57:14;14.83;;;13.30;;
6902;SDS011;20232;49.408;8.702;2023-04-28T05:59:40;15.00;;;12.77;;
6902;SDS011;20232;49.408;8.702;2023-04-28T06:02:06;13.67;;;12.27;;
6902;SDS011;20232;49.408;8.702;2023-04-28T06:04:31;14.47;;;12.73;;
6902;SDS011;20232;49.408;8.702;2023-04-28T06:06:57;15.30;;;13.70;;
6902;SDS011;20232;49.408;8.702;2023-04-28T06:09:23;15.60;;;13.73;;
6902;SDS011;20232;49.408;8.702;2023-04-28T06:11:48;15.93;;;13.57;;
6902;SDS011;20232;49.408;8.702;2023-04-28T06:14:14;15.27;;;13.30;;
6902;SDS011;20232;49.408;8.702;2023-04-28T06:16:40;15.13;;;13.63;;
6902;SDS011;20232;49.408;8.702;2023-04-28T06:19:05;17.67;;;14.97;;
6902;SDS011;20232;49.408;8.702;2023-04-28T06:21:31;15.40;;;13.80;;
6902;SDS011;20232;49.408;8.702;2023-04-28T06:23:57;17.70;;;14.83;;
6902;SDS011;20232;49.408;8.702;2023-04-28T06:26:23;16.40;;;13.83;;
6902;SDS011;20232;49.408;8.702;2023-04-28T06:28:48;18.10;;;14.87;;
6902;SDS011;20232;49.408;8.702;2023-04-28T06:31:15;17.50;;;15.57;;
6902;SDS011;20232;49.408;8.702;2023-04-28T06:33:40;17.47;;;14.70;;
6902;SDS011;20232;49.408;8.702;2023-04-28T06:36:06;16.20;;;14.50;;
6902;SDS011;20232;49.408;8.702;2023-04-28T06:38:32;16.03;;;14.40;;
6902;SDS011;20232;49.408;8.702;2023-04-28T06:40:58;16.43;;;14.67;;
6902;SDS011;20232;49.408;8.702;2023-04-28T06:43:23;16.30;;;14.53;;
6902;SDS011;20232;49.408;8.702;2023-04-28T06:45:49;17.97;;;14.43;;
6902;SDS011;20232;49.408;8.702;2023-04-28T06:48:14;17.10;;;14.50;;
6902;SDS011;20232;49.408;8.702;2023-04-28T06:50:40;17.27;;;15.47;;
6902;SDS011;20232;49.408;8.702;2023-04-28T06:53:06;18.57;;;15.97;;
6902;SDS011;20232;49.408;8.702;2023-04-28T06:55:32;19.97;;;15.90;;
6902;SDS011;20232;49.408;8.702;2023-04-28T06:57:58;18.20;;;16.37;;
6902;SDS011;20232;49.408;8.702;2023-04-28T07:00:24;20.23;;;17.20;;
6902;SDS011;20232;49.408;8.702;2023-04-28T07:02:49;22.10;;;16.53;;
6902;SDS011;20232;49.408;8.702;2023-04-28T07:05:15;18.43;;;16.43;;
6902;SDS011;20232;49.408;8.702;2023-04-28T07:07:40;18.50;;;16.30;;
6902;SDS011;20232;49.408;8.702;2023-04-28T07:10:06;18.73;;;16.07;;
6902;SDS011;20232;49.408;8.702;2023-04-28T07:12:32;16.93;;;15.23;;
6902;SDS011;20232;49.408;8.702;2023-04-28T07:14:58;18.90;;;16.97;;
6902;SDS011;20232;49.408;8.702;2023-04-28T07:17:23;18.70;;;16.57;;
6902;SDS011;20232;49.408;8.702;2023-04-28T07:19:49;19.70;;;16.20;;
6902;SDS011;20232;49.408;8.702;2023-04-28T07:22:15;16.27;;;14.67;;
6902;SDS011;20232;49.408;8.702;2023-04-28T07:24:41;15.20;;;13.60;;
6902;SDS011;20232;49.408;8.702;2023-04-28T07:27:07;14.30;;;12.90;;
6902;SDS011;20232;49.408;8.702;2023-04-28T07:29:33;15.27;;;13.77;;
6902;SDS011;20232;49.408;8.702;2023-04-28T07:32:01;13.97;;;12.57;;
6902;SDS011;20232;49.408;8.702;2023-04-28T07:34:32;14.83;;;12.60;;
6902;SDS011;20232;49.408;8.702;2023-04-28T07:36:59;14.10;;;12.70;;
6902;SDS011;20232;49.408;8.702;2023-04-28T07:39:25;14.93;;;13.10;;
6902;SDS011;20232;49.408;8.702;2023-04-28T07:41:51;13.70;;;12.30;;
6902;SDS011;20232;49.408;8.702;2023-04-28T07:44:16;13.63;;;12.33;;
6902;SDS011;20232;49.408;8.702;2023-04-28T07:46:42;15.77;;;14.03;;
6902;SDS011;20232;49.408;8.702;2023-04-28T07:49:08;13.73;;;12.33;;
6902;SDS011;20232;49.408;8.702;2023-04-28T07:51:33;13.43;;;12.13;;
6902;SDS011;20232;49.408;8.702;2023-04-28T07:53:59;15.13;;;12.37;;
6902;SDS011;20232;49.408;8.702;2023-04-28T07:56:25;13.87;;;12.27;;
6902;SDS011;20232;49.408;8.702;2023-04-28T07:58:51;15.27;;;12.77;;
6902;SDS011;20232;49.408;8.702;2023-04-28T08:01:17;13.43;;;12.13;;
6902;SDS011;20232;49.408;8.702;2023-04-28T08:03:42;15.27;;;13.40;;
6902;SDS011;20232;49.408;8.702;2023-04-28T08:06:08;14.73;;;13.33;;
6902;SDS011;20232;49.408;8.702;2023-04-28T08:08:34;14.10;;;12.77;;
6902;SDS011;20232;49.408;8.702;2023-04-28T08:11:00;14.07;;;12.73;;
6902;SDS011;20232;49.408;8.702;2023-04-28T08:13:26;13.63;;;12.40;;
6902;SDS011;20232;49.408;8.702;2023-04-28T08:15:54;12.67;;;11.37;;
6902;SDS011;20232;49.408;8.702;2023-04-28T08:18:24;12.50;;;11.20;;
6902;SDS011;20232;49.408;8.702;2023-04-28T08:20:50;13.47;;;11.50;;
6902;SDS011;20232;49.408;8.702;2023-04-28T08:23:16;12.23;;;11.07;;
6902;SDS011;20232;49.408;8.702;2023-04-28T08:25:41;11.93;;;10.83;;
6902;SDS011;20232;49.408;8.702;2023-04-28T08:28:07;11.40;;;10.30;;
6902;SDS011;20232;49.408;8.702;2023-04-28T08:30:33;11.30;;;10.10;;
6902;SDS011;20232;49.408;8.702;2023-04-28T08:32:59;11.47;;;10.37;;
6902;SDS011;20232;49.408;8.702;2023-04-28T08:35:24;11.07;;;10.07;;
6902;SDS011;20232;49.408;8.702;2023-04-28T08:37:51;10.40;;;9.50;;
6902;SDS011;20232;49.408;8.702;2023-04-28T08:40:17;10.40;;;9.50;;
6902;SDS011;20232;49.408;8.702;2023-04-28T08:42:42;9.80;;;8.90;;
6902;SDS011;20232;49.408;8.702;2023-04-28T08:45:12;9.80;;;8.83;;
6902;SDS011;20232;49.408;8.702;2023-04-28T08:47:40;8.50;;;7.80;;
6902;SDS011;20232;49.408;8.702;2023-04-28T08:50:10;9.83;;;8.80;;
6902;SDS011;20232;49.408;8.702;2023-04-28T08:52:37;10.63;;;8.93;;
6902;SDS011;20232;49.408;8.702;2023-04-28T08:55:12;8.77;;;8.07;;
6902;SDS011;20232;49.408;8.702;2023-04-28T08:57:43;8.87;;;8.00;;
6902;SDS011;20232;49.408;8.702;2023-04-28T09:00:10;8.73;;;7.93;;
6902;SDS011;20232;49.408;8.702;2023-04-28T09:02:36;8.13;;;7.43;;
6902;SDS011;20232;49.408;8.702;2023-04-28T09:05:06;7.90;;;7.30;;
6902;SDS011;20232;49.408;8.702;2023-04-28T09:07:35;7.77;;;7.07;;
6902;SDS011;20232;49.408;8.702;2023-04-28T09:10:21;7.70;;;7.00;;
6902;SDS011;20232;49.408;8.702;2023-04-28T09:12:50;5.10;;;4.70;;
6902;SDS011;20232;49.408;8.702;2023-04-28T09:15:32;6.23;;;5.63;;
6902;SDS011;20232;49.408;8.702;2023-04-28T09:18:02;5.40;;;5.00;;
6902;SDS011;20232;49.408;8.702;2023-04-28T09:20:30;5.57;;;5.00;;
6902;SDS011;20232;49.408;8.702;2023-04-28T09:23:11;5.33;;;4.83;;
6902;SDS011;20232;49.408;8.702;2023-04-28T09:25:59;6.30;;;5.87;;
6902;SDS011;20232;49.408;8.702;2023-04-28T09:28:26;6.13;;;5.53;;
6902;SDS011;20232;49.408;8.702;2023-04-28T09:30:52;6.60;;;6.10;;
6902;SDS011;20232;49.408;8.702;2023-04-28T09:33:19;7.07;;;6.37;;
6902;SDS011;20232;49.408;8.702;2023-04-28T09:35:45;6.33;;;5.83;;
6902;SDS011;20232;49.408;8.702;2023-04-28T09:38:12;7.37;;;6.77;;
6902;SDS011;20232;49.408;8.702;2023-04-28T09:43:27;7.53;;;6.83;;
6902;SDS011;20232;49.408;8.702;2023-04-28T09:45:58;7.77;;;7.13;;
6902;SDS011;20232;49.408;8.702;2023-04-28T09:48:37;7.80;;;7.17;;
6902;SDS011;20232;49.408;8.702;2023-04-28T09:51:03;8.27;;;7.57;;
6902;SDS011;20232;49.408;8.702;2023-04-28T09:53:30;8.30;;;7.67;;
6902;SDS011;20232;49.408;8.702;2023-04-28T09:55:58;7.90;;;7.20;;
6902;SDS011;20232;49.408;8.702;2023-04-28T09:58:26;7.93;;;7.33;;
6902;SDS011;20232;49.408;8.702;2023-04-28T10:00:56;8.50;;;7.80;;
6902;SDS011;20232;49.408;8.702;2023-04-28T10:03:23;7.97;;;7.27;;
6902;SDS011;20232;49.408;8.702;2023-04-28T10:05:53;7.67;;;6.93;;
6902;SDS011;20232;49.408;8.702;2023-04-28T10:08:20;7.87;;;7.07;;
6902;SDS011;20232;49.408;8.702;2023-04-28T10:10:50;8.40;;;7.60;;
6902;SDS011;20232;49.408;8.702;2023-04-28T10:13:19;8.20;;;7.50;;
6902;SDS011;20232;49.408;8.702;2023-04-28T10:15:46;8.70;;;8.00;;
6902;SDS011;20232;49.408;8.702;2023-04-28T10:18:13;8.53;;;7.93;;
6902;SDS011;20232;49.408;8.702;2023-04-28T10:20:41;8.57;;;7.80;;
6902;SDS011;20232;49.408;8.702;2023-04-28T10:25:56;8.57;;;7.87;;
6902;SDS011;20232;49.408;8.702;2023-04-28T10:28:23;8.50;;;7.80;;
6902;SDS011;20232;49.408;8.702;2023-04-28T10:33:36;9.07;;;8.30;;
6902;SDS011;20232;49.408;8.702;2023-04-28T10:36:03;9.33;;;8.53;;
6902;SDS011;20232;49.408;8.702;2023-04-28T10:38:29;9.53;;;8.73;;
6902;SDS011;20232;49.408;8.702;2023-04-28T10:40:55;10.20;;;9.23;;
6902;SDS011;20232;49.408;8.702;2023-04-28T10:48:21;10.40;;;9.60;;
6902;SDS011;20232;49.408;8.702;2023-04-28T10:58:36;10.27;;;9.27;;
6902;SDS011;20232;49.408;8.702;2023-04-28T11:08:50;10.03;;;9.23;;
6902;SDS011;20232;49.408;8.702;2023-04-28T11:11:21;8.57;;;7.77;;
6902;SDS011;20232;49.408;8.702;2023-04-28T11:13:47;10.17;;;9.33;;
6902;SDS011;20232;49.408;8.702;2023-04-28T11:16:14;10.93;;;9.93;;
6902;SDS011;20232;49.408;8.702;2023-04-28T11:18:47;11.37;;;10.27;;
6902;SDS011;20232;49.408;8.702;2023-04-28T11:21:14;10.73;;;9.83;;
6902;SDS011;20232;49.408;8.702;2023-04-28T11:23:40;11.70;;;9.60;;
6902;SDS011;20232;49.408;8.702;2023-04-28T11:26:07;10.30;;;9.40;;
6902;SDS011;20232;49.408;8.702;2023-04-28T11:28:32;11.00;;;9.90;;
6902;SDS011;20232;49.408;8.702;2023-04-28T11:31:10;10.20;;;9.33;;
6902;SDS011;20232;49.408;8.702;2023-04-28T11:33:36;11.33;;;10.30;;
6902;SDS011;20232;49.408;8.702;2023-04-28T11:36:03;11.63;;;10.50;;
6902;SDS011;20232;49.408;8.702;2023-04-28T11:38:29;11.43;;;10.43;;
6902;SDS011;20232;49.408;8.702;2023-04-28T11:41:06;12.60;;;11.60;;
6902;SDS011;20232;49.408;8.702;2023-04-28T11:43:32;14.13;;;12.77;;
6902;SDS011;20232;49.408;8.702;2023-04-28T11:45:57;13.03;;;11.83;;
6902;SDS011;20232;49.408;8.702;2023-04-28T11:48:23;14.57;;;13.10;;
6902;SDS011;20232;49.408;8.702;2023-04-28T11:50:48;13.93;;;12.73;;
6902;SDS011;20232;49.408;8.702;2023-04-28T11:53:14;13.90;;;12.70;;
6902;SDS011;20232;49.408;8.702;2023-04-28T11:55:40;15.17;;;13.77;;
6902;SDS011;20232;49.408;8.702;2023-04-28T11:58:21;12.30;;;11.20;;
6902;SDS011;20232;49.408;8.702;2023-04-28T12:01:08;12.90;;;11.73;;
6902;SDS011;20232;49.408;8.702;2023-04-28T12:03:41;13.77;;;12.63;;
6902;SDS011;20232;49.408;8.702;2023-04-28T12:06:08;9.63;;;8.73;;
6902;SDS011;20232;49.408;8.702;2023-04-28T12:08:34;8.23;;;7.60;;
6902;SDS011;20232;49.408;8.702;2023-04-28T12:11:06;8.33;;;7.57;;
6902;SDS011;20232;49.408;8.702;2023-04-28T12:13:34;6.77;;;5.77;;
6902;SDS011;20232;49.408;8.702;2023-04-28T12:16:00;7.87;;;7.13;;
6902;SDS011;20232;49.408;8.702;2023-04-28T12:18:29;9.80;;;8.23;;
6902;SDS011;20232;49.408;8.702;2023-04-28T12:21:01;9.37;;;8.03;;
6902;SDS011;20232;49.408;8.702;2023-04-28T12:23:31;12.40;;;10.40;;
6902;SDS011;20232;49.408;8.702;2023-04-28T12:25:58;9.03;;;8.23;;
6902;SDS011;20232;49.408;8.702;2023-04-28T12:28:37;10.40;;;9.00;;
6902;SDS011;20232;49.408;8.702;2023-04-28T12:31:05;7.30;;;6.60;;
6902;SDS011;20232;49.408;8.702;2023-04-28T12:33:35;10.43;;;7.83;;
6902;SDS011;20232;49.408;8.702;2023-04-28T12:36:04;10.70;;;9.73;;
6902;SDS011;20232;49.408;8.702;2023-04-28T12:38:31;10.73;;;9.63;;
6902;SDS011;20232;49.408;8.702;2023-04-28T12:40:57;13.33;;;11.43;;
6902;SDS011;20232;49.408;8.702;2023-04-28T12:43:23;14.37;;;12.30;;
6902;SDS011;20232;49.408;8.702;2023-04-28T12:45:50;18.93;;;16.57;;
6902;SDS011;20232;49.408;8.702;2023-04-28T12:48:24;17.77;;;15.87;;
6902;SDS011;20232;49.408;8.702;2023-04-28T12:50:51;16.80;;;15.07;;
6902;SDS011;20232;49.408;8.702;2023-04-28T12:53:16;14.87;;;13.30;;
6902;SDS011;20232;49.408;8.702;2023-04-28T12:55:42;18.47;;;16.53;;
6902;SDS011;20232;49.408;8.702;2023-04-28T12:58:08;16.23;;;14.63;;
6902;SDS011;20232;49.408;8.702;2023-04-28T13:00:33;16.37;;;14.50;;
6902;SDS011;20232;49.408;8.702;2023-04-28T13:02:59;17.23;;;15.63;;
6902;SDS011;20232;49.408;8.702;2023-04-28T13:05:25;15.13;;;13.63;;
6902;SDS011;20232;49.408;8.702;2023-04-28T13:07:50;13.67;;;12.33;;
6902;SDS011;20232;49.408;8.702;2023-04-28T13:10:17;14.40;;;12.90;;
6902;SDS011;20232;49.408;8.702;2023-04-28T13:12:45;14.77;;;13.27;;
6902;SDS011;20232;49.408;8.702;2023-04-28T13:15:10;14.00;;;12.70;;
6902;SDS011;20232;49.408;8.702;2023-04-28T13:17:36;14.50;;;13.10;;
6902;SDS011;20232;49.408;8.702;2023-04-28T13:20:02;14.03;;;12.73;;
6902;SDS011;20232;49.408;8.702;2023-04-28T13:22:29;13.77;;;12.47;;
6902;SDS011;20232;49.408;8.702;2023-04-28T13:24:54;11.93;;;10.83;;
6902;SDS011;20232;49.408;8.702;2023-04-28T13:27:20;11.87;;;10.63;;
6902;SDS011;20232;49.408;8.702;2023-04-28T13:29:46;10.87;;;9.77;;
6902;SDS011;20232;49.408;8.702;2023-04-28T13:32:11;10.70;;;9.60;;
6902;SDS011;20232;49.408;8.702;2023-04-28T13:34:37;9.57;;;8.77;;
6902;SDS011;20232;49.408;8.702;2023-04-28T13:37:03;8.70;;;7.97;;
6902;SDS011;20232;49.408;8.702;2023-04-28T13:39:29;6.50;;;5.90;;
6902;SDS011;20232;49.408;8.702;2023-04-28T13:41:55;5.60;;;5.10;;
6902;SDS011;20232;49.408;8.702;2023-04-28T13:44:21;6.03;;;5.53;;
6902;SDS011;20232;49.408;8.702;2023-04-28T13:46:46;6.00;;;5.60;;
6902;SDS011;20232;49.408;8.702;2023-04-28T13:49:12;6.47;;;5.97;;
6902;SDS011;20232;49.408;8.702;2023-04-28T13:51:38;7.00;;;6.40;;
6902;SDS011;20232;49.408;8.702;2023-04-28T13:54:04;7.30;;;6.60;;
6902;SDS011;20232;49.408;8.702;2023-04-28T13:56:32;6.37;;;5.73;;
6902;SDS011;20232;49.408;8.702;2023-04-28T13:58:59;7.13;;;6.47;;
6902;SDS011;20232;49.408;8.702;2023-04-28T14:01:24;7.10;;;6.50;;
6902;SDS011;20232;49.408;8.702;2023-04-28T14:03:51;6.47;;;5.97;;
6902;SDS011;20232;49.408;8.702;2023-04-28T14:06:16;5.67;;;5.03;;
6902;SDS011;20232;49.408;8.702;2023-04-28T14:08:42;5.60;;;4.50;;
6902;SDS011;20232;49.408;8.702;2023-04-28T14:11:07;5.70;;;4.20;;
6902;SDS011;20232;49.408;8.702;2023-04-28T14:13:33;5.70;;;4.90;;
6902;SDS011;20232;49.408;8.702;2023-04-28T14:15:59;4.53;;;4.10;;
6902;SDS011;20232;49.408;8.702;2023-04-28T14:18:26;5.20;;;4.33;;
6902;SDS011;20232;49.408;8.702;2023-04-28T14:20:52;6.00;;;4.00;;
6902;SDS011;20232;49.408;8.702;2023-04-28T14:23:18;8.13;;;4.80;;
6902;SDS011;20232;49.408;8.702;2023-04-28T14:25:44;3.70;;;2.97;;
6902;SDS011;20232;49.408;8.702;2023-04-28T14:28:10;4.90;;;3.70;;
6902;SDS011;20232;49.408;8.702;2023-04-28T14:30:36;7.23;;;4.73;;
6902;SDS011;20232;49.408;8.702;2023-04-28T14:33:02;7.90;;;3.97;;
6902;SDS011;20232;49.408;8.702;2023-04-28T14:35:27;5.63;;;3.50;;
6902;SDS011;20232;49.408;8.702;2023-04-28T14:37:55;6.93;;;3.83;;
6902;SDS011;20232;49.408;8.702;2023-04-28T14:40:21;4.13;;;2.93;;
6902;SDS011;20232;49.408;8.702;2023-04-28T14:42:47;5.90;;;3.70;;
6902;SDS011;20232;49.408;8.702;2023-04-28T14:45:13;3.33;;;3.03;;
6902;SDS011;20232;49.408;8.702;2023-04-28T14:47:39;3.27;;;2.90;;
6902;SDS011;20232;49.408;8.702;2023-04-28T14:50:05;4.40;;;3.27;;
6902;SDS011;20232;49.408;8.702;2023-04-28T14:52:32;8.20;;;4.07;;
6902;SDS011;20232;49.408;8.702;2023-04-28T14:54:58;6.40;;;4.10;;
6902;SDS011;20232;49.408;8.702;2023-04-28T14:57:24;9.13;;;5.03;;
6902;SDS011;20232;49.408;8.702;2023-04-28T14:59:50;10.07;;;4.53;;
6902;SDS011;20232;49.408;8.702;2023-04-28T15:02:17;27.70;;;6.00;;
6902;SDS011;20232;49.408;8.702;2023-04-28T15:04:44;11.63;;;6.07;;
6902;SDS011;20232;49.408;8.702;2023-04-28T15:07:10;3.47;;;3.17;;
6902;SDS011;20232;49.408;8.702;2023-04-28T15:09:36;4.90;;;2.77;;
6902;SDS011;20232;49.408;8.702;2023-04-28T15:12:02;4.77;;;3.10;;
6902;SDS011;20232;49.408;8.702;2023-04-28T15:14:28;5.67;;;3.23;;
6902;SDS011;20232;49.408;8.702;2023-04-28T15:16:54;2.80;;;2.60;;
6902;SDS011;20232;49.408;8.702;2023-04-28T15:19:20;3.53;;;2.80;;
6902;SDS011;20232;49.408;8.702;2023-04-28T15:21:46;4.70;;;3.00;;
6902;SDS011;20232;49.408;8.702;2023-04-28T15:24:13;4.83;;;2.20;;
6902;SDS011;20232;49.408;8.702;2023-04-28T15:26:39;4.70;;;2.00;;
6902;SDS011;20232;49.408;8.702;2023-04-28T15:29:08;1.63;;;1.53;;
6902;SDS011;20232;49.408;8.702;2023-04-28T15:31:34;1.80;;;1.50;;
6902;SDS011;20232;49.408;8.702;2023-04-28T15:33:59;3.00;;;1.90;;
6902;SDS011;20232;49.408;8.702;2023-04-28T15:36:25;2.70;;;1.90;;
6902;SDS011;20232;49.408;8.702;2023-04-28T15:38:52;2.20;;;2.00;;
6902;SDS011;20232;49.408;8.702;2023-04-28T15:41:18;3.20;;;1.93;;
6902;SDS011;20232;49.408;8.702;2023-04-28T15:43:44;3.43;;;2.17;;
6902;SDS011;20232;49.408;8.702;2023-04-28T15:46:11;2.97;;;2.30;;
6902;SDS011;20232;49.408;8.702;2023-04-28T15:48:40;3.63;;;2.13;;
6902;SDS011;20232;49.408;8.702;2023-04-28T15:51:06;2.93;;;1.70;;
6902;SDS011;20232;49.408;8.702;2023-04-28T15:53:32;3.37;;;1.90;;
6902;SDS011;20232;49.408;8.702;2023-04-28T15:55:58;3.47;;;2.00;;
6902;SDS011;20232;49.408;8.702;2023-04-28T15:58:23;2.73;;;1.90;;
6902;SDS011;20232;49.408;8.702;2023-04-28T16:00:49;3.37;;;1.70;;
6902;SDS011;20232;49.408;8.702;2023-04-28T16:03:15;4.33;;;1.50;;
6902;SDS011;20232;49.408;8.702;2023-04-28T16:05:41;2.00;;;1.80;;
6902;SDS011;20232;49.408;8.702;2023-04-28T16:08:06;5.17;;;2.40;;
6902;SDS011;20232;49.408;8.702;2023-04-28T16:10:33;6.50;;;2.90;;
6902;SDS011;20232;49.408;8.702;2023-04-28T16:12:58;5.07;;;2.80;;
6902;SDS011;20232;49.408;8.702;2023-04-28T16:15:24;6.20;;;3.13;;
6902;SDS011;20232;49.408;8.702;2023-04-28T16:17:49;5.17;;;2.90;;
6902;SDS011;20232;49.408;8.702;2023-04-28T16:20:16;6.03;;;2.77;;
6902;SDS011;20232;49.408;8.702;2023-04-28T16:22:42;3.33;;;2.90;;
6902;SDS011;20232;49.408;8.702;2023-04-28T16:25:08;3.33;;;2.90;;
6902;SDS011;20232;49.408;8.702;2023-04-28T16:27:35;5.77;;;2.87;;
6902;SDS011;20232;49.408;8.702;2023-04-28T16:30:01;4.63;;;2.63;;
6902;SDS011;20232;49.408;8.702;2023-04-28T16:32:30;5.17;;;2.43;;
6902;SDS011;20232;49.408;8.702;2023-04-28T16:34:57;5.10;;;2.30;;
6902;SDS011;20232;49.408;8.702;2023-04-28T16:37:23;5.93;;;2.40;;
6902;SDS011;20232;49.408;8.702;2023-04-28T16:39:49;3.50;;;2.00;;
6902;SDS011;20232;49.408;8.702;2023-04-28T16:42:15;3.17;;;1.90;;
6902;SDS011;20232;49.408;8.702;2023-04-28T16:44:41;3.70;;;1.80;;
6902;SDS011;20232;49.408;8.702;2023-04-28T16:47:07;4.63;;;1.77;;
6902;SDS011;20232;49.408;8.702;2023-04-28T16:49:32;4.07;;;1.50;;
6902;SDS011;20232;49.408;8.702;2023-04-28T16:51:59;5.60;;;1.73;;
6902;SDS011;20232;49.408;8.702;2023-04-28T16:54:25;6.13;;;2.33;;
6902;SDS011;20232;49.408;8.702;2023-04-28T16:56:55;5.90;;;2.67;;
6902;SDS011;20232;49.408;8.702;2023-04-28T16:59:22;4.13;;;2.27;;
6902;SDS011;20232;49.408;8.702;2023-04-28T17:01:50;6.30;;;2.23;;
6902;SDS011;20232;49.408;8.702;2023-04-28T17:04:16;3.37;;;2.40;;
6902;SDS011;20232;49.408;8.702;2023-04-28T17:06:42;7.00;;;3.80;;
6902;SDS011;20232;49.408;8.702;2023-04-28T17:09:08;5.23;;;2.90;;
6902;SDS011;20232;49.408;8.702;2023-04-28T17:11:33;3.57;;;2.37;;
6902;SDS011;20232;49.408;8.702;2023-04-28T17:14:01;4.27;;;2.50;;
6902;SDS011;20232;49.408;8.702;2023-04-28T17:16:31;4.17;;;2.63;;
6902;SDS011;20232;49.408;8.702;2023-04-28T17:18:57;3.23;;;2.43;;
6902;SDS011;20232;49.408;8.702;2023-04-28T17:21:22;3.50;;;2.30;;
6902;SDS011;20232;49.408;8.702;2023-04-28T17:23:49;4.60;;;2.60;;
6902;SDS011;20232;49.408;8.702;2023-04-28T17:26:15;6.00;;;2.90;;
6902;SDS011;20232;49.408;8.702;2023-04-28T17:28:41;3.47;;;2.80;;
6902;SDS011;20232;49.408;8.702;2023-04-28T17:31:08;5.50;;;4.67;;
6902;SDS011;20232;49.408;8.702;2023-04-28T17:33:33;6.90;;;5.87;;
6902;SDS011;20232;49.408;8.702;2023-04-28T17:36:00;6.00;;;3.60;;
6902;SDS011;20232;49.408;8.702;2023-04-28T17:38:28;4.83;;;4.30;;
6902;SDS011;20232;49.408;8.702;2023-04-28T17:40:53;6.57;;;4.87;;
6902;SDS011;20232;49.408;8.702;2023-04-28T17:43:20;6.23;;;3.80;;
6902;SDS011;20232;49.408;8.702;2023-04-28T17:45:45;3.90;;;3.50;;
6902;SDS011;20232;49.408;8.702;2023-04-28T17:48:11;9.93;;;4.07;;
6902;SDS011;20232;49.408;8.702;2023-04-28T17:50:37;6.43;;;4.10;;
6902;SDS011;20232;49.408;8.702;2023-04-28T17:53:03;6.63;;;3.50;;
6902;SDS011;20232;49.408;8.702;2023-04-28T17:55:28;6.40;;;3.90;;
6902;SDS011;20232;49.408;8.702;2023-04-28T17:57:55;7.23;;;4.23;;
6902;SDS011;20232;49.408;8.702;2023-04-28T18:00:21;7.33;;;3.90;;
6902;SDS011;20232;49.408;8.702;2023-04-28T18:02:47;5.73;;;4.40;;
6902;SDS011;20232;49.408;8.702;2023-04-28T18:05:12;4.17;;;3.73;;
6902;SDS011;20232;49.408;8.702;2023-04-28T18:07:41;5.90;;;3.57;;
6902;SDS011;20232;49.408;8.702;2023-04-28T18:10:06;4.83;;;3.30;;
6902;SDS011;20232;49.408;8.702;2023-04-28T18:12:32;4.50;;;4.10;;
6902;SDS011;20232;49.408;8.702;2023-04-28T18:14:58;6.17;;;3.77;;
6902;SDS011;20232;49.408;8.702;2023-04-28T18:17:24;6.73;;;3.70;;
6902;SDS011;20232;49.408;8.702;2023-04-28T18:19:50;5.53;;;3.90;;
6902;SDS011;20232;49.408;8.702;2023-04-28T18:22:19;9.47;;;4.67;;
6902;SDS011;20232;49.408;8.702;2023-04-28T18:24:45;5.37;;;4.10;;
6902;SDS011;20232;49.408;8.702;2023-04-28T18:27:12;8.20;;;3.77;;
6902;SDS011;20232;49.408;8.702;2023-04-28T18:29:38;7.03;;;4.30;;
6902;SDS011;20232;49.408;8.702;2023-04-28T18:32:03;7.10;;;4.77;;
6902;SDS011;20232;49.408;8.702;2023-04-28T18:34:29;6.07;;;4.53;;
6902;SDS011;20232;49.408;8.702;2023-04-28T18:36:55;6.20;;;5.60;;
6902;SDS011;20232;49.408;8.702;2023-04-28T18:39:20;7.33;;;5.10;;
6902;SDS011;20232;49.408;8.702;2023-04-28T18:41:46;5.80;;;4.90;;
6902;SDS011;20232;49.408;8.702;2023-04-28T18:44:12;7.33;;;4.60;;
6902;SDS011;20232;49.408;8.702;2023-04-28T18:46:38;5.20;;;4.70;;
6902;SDS011;20232;49.408;8.702;2023-04-28T18:49:03;5.73;;;4.70;;
6902;SDS011;20232;49.408;8.702;2023-04-28T18:51:30;7.03;;;5.27;;
6902;SDS011;20232;49.408;8.702;2023-04-28T18:53:56;7.77;;;5.70;;
6902;SDS011;20232;49.408;8.702;2023-04-28T18:56:21;7.53;;;5.30;;
6902;SDS011;20232;49.408;8.702;2023-04-28T18:58:48;7.70;;;6.27;;
6902;SDS011;20232;49.408;8.702;2023-04-28T19:01:14;9.43;;;6.90;;
6902;SDS011;20232;49.408;8.702;2023-04-28T19:03:41;7.70;;;7.00;;
6902;SDS011;20232;49.408;8.702;2023-04-28T19:06:07;8.60;;;6.40;;
6902;SDS011;20232;49.408;8.702;2023-04-28T19:08:34;7.77;;;6.20;;
6902;SDS011;20232;49.408;8.702;2023-04-28T19:11:03;7.97;;;7.03;;
6902;SDS011;20232;49.408;8.702;2023-04-28T19:13:33;8.73;;;7.50;;
6902;SDS011;20232;49.408;8.702;2023-04-28T19:16:00;7.93;;;6.97;;